Time;durP1;ratioP1;P1;durP2;ratioP2;P2;SDS_P1;SDS_P2;PMS_P1;PMS_P2;Temp;Humidity;BMP_temperature;BMP_pressure;BME280_temperature;BME280_humidity;BME280_pressure;Samples;Min_cycle;Max_cycle;Signal;HPM_P1;HPM_P2
2024/01/22 00:00:40;;;;;;;11.15;3.78;;;7.20;99.90;;;;;;5035541;28;20154;-66
2024/01/22 00:03:05;;;;;;;7.57;3.92;;;7.20;99.90;;;;;;5056364;28;20040;-66
2024/01/22 00:05:31;;;;;;;9.13;3.75;;;7.20;99.90;;;;;;5057738;28;20146;-67
2024/01/22 00:07:58;;;;;;;10.05;3.95;;;7.20;99.90;;;;;;5034220;28;20675;-67
2024/01/22 00:10:24;;;;;;;6.97;3.22;;;7.20;99.90;;;;;;5069123;28;20035;-67
2024/01/22 00:12:49;;;;;;;7.13;4.53;;;7.10;99.90;;;;;;5052737;28;20036;-67
2024/01/22 00:15:15;;;;;;;7.93;3.55;;;7.10;99.90;;;;;;5039593;28;20059;-66
2024/01/22 00:17:41;;;;;;;9.70;4.22;;;7.10;99.90;;;;;;5051828;28;20520;-66
2024/01/22 00:20:07;;;;;;;6.93;3.35;;;7.20;99.90;;;;;;5056237;28;20178;-67
2024/01/22 00:22:33;;;;;;;9.02;4.13;;;7.20;99.90;;;;;;5055941;28;20044;-68
2024/01/22 00:24:59;;;;;;;7.78;3.22;;;7.20;99.90;;;;;;5059862;28;20047;-64
2024/01/22 00:27:25;;;;;;;8.25;3.03;;;7.20;99.90;;;;;;5059814;28;20539;-67
2024/01/22 00:29:51;;;;;;;8.27;3.28;;;7.40;99.90;;;;;;5062228;28;20032;-66
2024/01/22 00:32:16;;;;;;;7.47;3.47;;;7.30;99.90;;;;;;5057209;28;20035;-66
2024/01/22 00:34:42;;;;;;;8.27;3.53;;;7.40;99.90;;;;;;5056363;28;20032;-67
2024/01/22 00:37:08;;;;;;;7.20;2.67;;;7.40;99.90;;;;;;5055739;28;20048;-67
2024/01/22 00:39:34;;;;;;;7.03;2.92;;;7.50;99.90;;;;;;5055576;28;20104;-67
2024/01/22 00:41:59;;;;;;;7.40;3.13;;;7.50;99.90;;;;;;5060844;28;20642;-68
2024/01/22 00:44:25;;;;;;;5.18;2.60;;;7.50;99.90;;;;;;5038327;28;20047;-69
2024/01/22 00:46:51;;;;;;;7.22;3.50;;;7.50;99.90;;;;;;5038566;28;20500;-66
2024/01/22 00:49:17;;;;;;;7.10;2.92;;;7.60;99.90;;;;;;5041431;28;20309;-67
2024/01/22 00:51:46;;;;;;;6.03;3.00;;;7.70;99.90;;;;;;5041155;28;20043;-67
2024/01/22 00:54:12;;;;;;;7.82;3.50;;;7.70;99.90;;;;;;5055603;28;20064;-66
2024/01/22 00:56:38;;;;;;;5.85;3.08;;;7.80;99.90;;;;;;5055338;28;20926;-66
2024/01/22 00:59:04;;;;;;;6.95;3.70;;;7.80;99.90;;;;;;5038598;28;20040;-67
2024/01/22 01:01:33;;;;;;;6.57;3.03;;;7.80;99.90;;;;;;5055381;28;20052;-66
2024/01/22 01:03:58;;;;;;;8.02;3.28;;;7.80;99.90;;;;;;5055225;28;20375;-66
2024/01/22 01:06:24;;;;;;;7.90;3.10;;;7.80;99.90;;;;;;5062429;28;20339;-67
2024/01/22 01:08:50;;;;;;;6.43;3.15;;;7.90;99.90;;;;;;5075219;28;20028;-66
2024/01/22 01:11:16;;;;;;;6.25;3.10;;;7.80;99.90;;;;;;5041468;28;20050;-66
2024/01/22 01:13:42;;;;;;;5.68;2.70;;;7.70;99.90;;;;;;5038410;28;20335;-67
2024/01/22 01:16:08;;;;;;;8.40;3.45;;;7.70;99.90;;;;;;5057516;28;20239;-68
2024/01/22 01:18:34;;;;;;;4.05;2.20;;;7.80;99.90;;;;;;5054676;28;20405;-67
2024/01/22 01:20:59;;;;;;;7.65;2.90;;;7.70;99.90;;;;;;5055045;28;20067;-67
2024/01/22 01:23:25;;;;;;;6.75;3.00;;;7.80;99.90;;;;;;5055407;28;20634;-67
2024/01/22 01:25:51;;;;;;;5.47;2.50;;;7.90;99.90;;;;;;5055316;28;20643;-67
2024/01/22 01:28:17;;;;;;;6.13;3.50;;;7.90;99.90;;;;;;5072121;28;20421;-67
2024/01/22 01:30:43;;;;;;;5.75;3.00;;;7.90;99.90;;;;;;5055322;28;20032;-68
2024/01/22 01:33:09;;;;;;;7.05;3.28;;;7.80;99.90;;;;;;5054775;28;20686;-68
2024/01/22 01:35:34;;;;;;;6.25;2.53;;;7.80;99.90;;;;;;5038314;28;20436;-67
2024/01/22 01:38:00;;;;;;;6.65;3.30;;;7.70;99.90;;;;;;5075111;28;20294;-66
2024/01/22 01:40:29;;;;;;;7.38;3.67;;;7.80;99.90;;;;;;5065517;28;20100;-67
2024/01/22 01:42:55;;;;;;;5.05;3.08;;;7.80;99.90;;;;;;5063037;28;20080;-68
2024/01/22 01:45:21;;;;;;;6.00;3.53;;;7.70;99.90;;;;;;5098688;27;20039;-67
2024/01/22 01:47:47;;;;;;;5.60;2.58;;;7.70;99.90;;;;;;5048967;28;20036;-67
2024/01/22 01:50:19;;;;;;;6.10;3.17;;;7.80;99.90;;;;;;5060671;28;20040;-67
2024/01/22 01:52:46;;;;;;;7.90;2.20;;;7.80;99.90;;;;;;5052517;28;20050;-66
2024/01/22 01:55:12;;;;;;;5.07;2.97;;;7.80;99.90;;;;;;5046715;28;20044;-68
2024/01/22 01:57:39;;;;;;;7.97;2.95;;;7.80;99.90;;;;;;5062503;28;20100;-68
2024/01/22 02:00:12;;;;;;;7.03;2.28;;;7.90;99.90;;;;;;5063893;28;20390;-68
2024/01/22 02:02:39;;;;;;;6.75;3.25;;;7.80;99.90;;;;;;5064990;28;20039;-68
2024/01/22 02:05:06;;;;;;;7.57;3.75;;;8.00;99.90;;;;;;5065366;28;20047;-68
2024/01/22 02:07:32;;;;;;;6.32;3.50;;;7.90;99.90;;;;;;5067724;28;20638;-67
2024/01/22 02:09:58;;;;;;;7.30;3.28;;;7.90;99.90;;;;;;5070610;28;20477;-68
2024/01/22 02:12:24;;;;;;;7.68;3.08;;;8.00;99.90;;;;;;5046785;28;20396;-67
2024/01/22 02:14:50;;;;;;;4.95;2.90;;;8.00;99.90;;;;;;5079619;28;20054;-68
2024/01/22 02:17:16;;;;;;;8.68;4.07;;;8.00;99.90;;;;;;5049125;28;20050;-68
2024/01/22 02:19:42;;;;;;;10.18;3.72;;;8.10;99.90;;;;;;5080128;28;20035;-67
2024/01/22 02:22:08;;;;;;;7.40;3.85;;;8.10;99.90;;;;;;5062802;28;20039;-67
2024/01/22 02:24:34;;;;;;;8.18;3.47;;;8.10;99.90;;;;;;5080964;28;20054;-68
2024/01/22 02:26:59;;;;;;;7.97;3.50;;;8.10;99.90;;;;;;5045235;28;20107;-68
2024/01/22 02:29:25;;;;;;;8.20;4.03;;;8.00;99.90;;;;;;5081304;28;20035;-67
2024/01/22 02:31:52;;;;;;;8.52;3.60;;;7.90;99.90;;;;;;5080204;28;20027;-67
2024/01/22 02:34:19;;;;;;;8.60;3.72;;;7.90;99.90;;;;;;5077529;28;20039;-68
2024/01/22 02:36:46;;;;;;;6.20;3.63;;;8.00;99.90;;;;;;5061187;28;20075;-68
2024/01/22 02:39:12;;;;;;;8.13;3.33;;;8.10;99.90;;;;;;5079051;28;20284;-67
2024/01/22 02:41:39;;;;;;;9.82;3.35;;;8.00;99.90;;;;;;5065946;28;20074;-68
2024/01/22 02:44:05;;;;;;;4.53;2.53;;;8.10;99.90;;;;;;5062218;28;20056;-68
2024/01/22 02:46:31;;;;;;;6.82;3.40;;;8.10;99.90;;;;;;5043290;28;20040;-67
2024/01/22 02:48:58;;;;;;;7.45;3.53;;;8.30;99.90;;;;;;5077745;28;20031;-67
2024/01/22 02:51:24;;;;;;;8.95;3.40;;;8.10;99.90;;;;;;5078747;28;20665;-67
2024/01/22 02:53:50;;;;;;;5.10;2.90;;;8.50;99.90;;;;;;5077684;28;20067;-67
2024/01/22 02:56:20;;;;;;;6.80;2.35;;;8.30;99.90;;;;;;5076505;28;20050;-67
2024/01/22 02:58:46;;;;;;;5.72;2.90;;;8.50;99.90;;;;;;5076234;28;20053;-68
2024/01/22 03:01:12;;;;;;;3.65;1.60;;;8.70;99.90;;;;;;5079940;28;20051;-67
2024/01/22 03:03:40;;;;;;;4.82;2.95;;;8.60;99.90;;;;;;5076544;28;20118;-67
2024/01/22 03:06:06;;;;;;;3.83;2.60;;;8.40;99.90;;;;;;5077274;28;20051;-67
2024/01/22 03:08:32;;;;;;;7.00;3.08;;;8.70;99.90;;;;;;5043888;28;20104;-67
2024/01/22 03:10:58;;;;;;;5.15;2.70;;;8.80;99.90;;;;;;5059857;28;20809;-66
2024/01/22 03:13:24;;;;;;;6.93;3.00;;;8.70;99.90;;;;;;5076647;28;20267;-67
2024/01/22 03:15:49;;;;;;;5.68;3.00;;;8.60;99.90;;;;;;5091470;28;20028;-67
2024/01/22 03:18:15;;;;;;;6.95;2.90;;;8.40;99.90;;;;;;5076792;28;20437;-67
2024/01/22 03:20:41;;;;;;;5.90;2.92;;;8.50;99.90;;;;;;5077715;28;20425;-67
2024/01/22 03:23:07;;;;;;;5.95;2.83;;;8.40;99.90;;;;;;5076998;28;20054;-66
2024/01/22 03:25:32;;;;;;;4.68;2.03;;;8.50;99.90;;;;;;5059831;28;20044;-68
2024/01/22 03:27:58;;;;;;;5.40;2.95;;;8.90;99.90;;;;;;5077358;28;20054;-67
2024/01/22 03:30:24;;;;;;;5.90;2.28;;;8.60;99.90;;;;;;5076941;28;20177;-67
2024/01/22 03:32:50;;;;;;;5.47;2.83;;;8.80;99.90;;;;;;5077224;28;20044;-67
2024/01/22 03:35:16;;;;;;;6.60;3.10;;;8.90;99.90;;;;;;5062705;28;20054;-67
2024/01/22 03:37:41;;;;;;;4.93;3.10;;;9.00;99.90;;;;;;5063130;28;20047;-67
2024/01/22 03:40:09;;;;;;;5.80;3.40;;;8.50;99.90;;;;;;5079330;28;20458;-67
2024/01/22 03:42:36;;;;;;;6.15;3.08;;;8.50;99.90;;;;;;5078255;28;20055;-67
2024/01/22 03:45:03;;;;;;;7.95;3.42;;;8.80;99.90;;;;;;5072785;28;20043;-68
2024/01/22 03:47:29;;;;;;;6.43;3.67;;;8.50;99.90;;;;;;5078434;28;20059;-67
2024/01/22 03:49:55;;;;;;;8.20;4.13;;;8.50;99.90;;;;;;5079439;28;20042;-69
2024/01/22 03:52:20;;;;;;;5.68;3.45;;;8.80;99.90;;;;;;5063646;28;20051;-67
2024/01/22 03:54:46;;;;;;;6.15;3.78;;;9.00;99.90;;;;;;5047012;28;20044;-67
2024/01/22 03:57:12;;;;;;;5.80;3.00;;;9.00;99.90;;;;;;5082359;28;20047;-67
2024/01/22 03:59:38;;;;;;;6.47;2.88;;;8.50;99.90;;;;;;5084851;28;20039;-68
2024/01/22 04:02:04;;;;;;;7.13;2.95;;;8.50;99.90;;;;;;5083822;28;20044;-67
2024/01/22 04:04:30;;;;;;;5.15;2.13;;;9.00;99.90;;;;;;5082384;28;20563;-67
2024/01/22 04:06:56;;;;;;;6.72;3.50;;;8.70;99.90;;;;;;5082319;28;20346;-67
2024/01/22 04:09:22;;;;;;;7.57;3.53;;;8.60;99.90;;;;;;5065453;28;20036;-68
2024/01/22 04:11:48;;;;;;;4.68;3.00;;;8.60;99.90;;;;;;5064061;28;20036;-67
2024/01/22 04:14:14;;;;;;;5.25;3.25;;;8.80;99.90;;;;;;5080162;28;20468;-66
2024/01/22 04:16:39;;;;;;;5.28;3.28;;;8.60;99.90;;;;;;5045381;28;20058;-66
2024/01/22 04:19:05;;;;;;;3.60;2.72;;;8.70;99.90;;;;;;5079018;28;20120;-66
2024/01/22 04:21:31;;;;;;;5.78;2.83;;;8.80;99.90;;;;;;5063060;28;20134;-67
2024/01/22 04:23:57;;;;;;;6.05;2.90;;;8.80;99.90;;;;;;5080932;28;20040;-67
2024/01/22 04:26:23;;;;;;;5.20;3.15;;;8.90;99.90;;;;;;5091430;28;20044;-65
2024/01/22 04:28:48;;;;;;;6.65;2.92;;;8.60;99.90;;;;;;5046899;28;20039;-66
2024/01/22 04:31:14;;;;;;;5.00;3.25;;;9.40;99.90;;;;;;5064962;28;20067;-67
2024/01/22 04:33:43;;;;;;;4.97;2.15;;;9.30;99.90;;;;;;5080753;28;20449;-67
2024/01/22 04:36:09;;;;;;;4.95;3.10;;;8.70;99.90;;;;;;5078897;28;20092;-67
2024/01/22 04:38:35;;;;;;;3.83;2.33;;;8.90;99.90;;;;;;5062183;28;20043;-66
2024/01/22 04:41:01;;;;;;;3.20;2.72;;;9.30;99.90;;;;;;5079297;28;20545;-67
2024/01/22 04:43:26;;;;;;;4.95;2.90;;;9.30;99.90;;;;;;5078880;28;20043;-67
2024/01/22 04:45:52;;;;;;;3.95;2.60;;;9.20;99.90;;;;;;5062089;28;20046;-67
2024/01/22 04:48:18;;;;;;;3.15;2.47;;;9.40;99.90;;;;;;5078472;28;20043;-67
2024/01/22 04:50:44;;;;;;;3.75;2.83;;;8.70;99.90;;;;;;5062302;28;20094;-66
2024/01/22 04:53:10;;;;;;;4.15;1.52;;;9.60;99.90;;;;;;5077500;28;20293;-69
2024/01/22 04:55:36;;;;;;;2.88;1.55;;;9.80;99.90;;;;;;5059436;28;20489;-69
2024/01/22 04:58:02;;;;;;;3.75;2.50;;;9.60;99.90;;;;;;5049206;28;20158;-68
2024/01/22 05:00:27;;;;;;;4.38;2.03;;;9.30;99.90;;;;;;5075927;28;20495;-68
2024/01/22 05:02:53;;;;;;;4.97;2.40;;;9.70;99.90;;;;;;5058863;28;20055;-69
2024/01/22 05:05:19;;;;;;;3.95;1.65;;;9.10;99.90;;;;;;5075318;28;20398;-68
2024/01/22 05:07:45;;;;;;;2.28;1.83;;;9.80;99.90;;;;;;5059170;28;20048;-68
2024/01/22 05:10:13;;;;;;;4.55;2.67;;;9.00;99.90;;;;;;5059192;28;20031;-68
2024/01/22 05:12:40;;;;;;;2.22;1.50;;;9.10;99.90;;;;;;5075359;28;20243;-68
2024/01/22 05:15:06;;;;;;;2.83;1.65;;;9.60;99.90;;;;;;5059187;28;20043;-69
2024/01/22 05:17:33;;;;;;;4.10;1.90;;;9.10;99.90;;;;;;5058395;28;20043;-70
2024/01/22 05:19:59;;;;;;;3.00;1.80;;;9.20;99.90;;;;;;5076508;28;20138;-69
2024/01/22 05:22:25;;;;;;;3.15;1.42;;;10.00;99.90;;;;;;5059069;28;20054;-69
2024/01/22 05:24:51;;;;;;;2.10;1.27;;;10.20;99.90;;;;;;5059017;28;20048;-69
2024/01/22 05:27:17;;;;;;;2.35;1.33;;;10.10;99.90;;;;;;5041625;28;20040;-69
2024/01/22 05:29:43;;;;;;;3.55;1.70;;;10.20;99.90;;;;;;5075933;28;20096;-67
2024/01/22 05:32:09;;;;;;;3.63;1.73;;;10.30;99.90;;;;;;5075581;28;20054;-68
2024/01/22 05:34:35;;;;;;;3.92;1.60;;;9.30;99.90;;;;;;5093602;28;21053;-67
2024/01/22 05:37:01;;;;;;;3.22;1.65;;;10.30;99.90;;;;;;5046367;28;20482;-67
2024/01/22 05:39:27;;;;;;;2.33;1.75;;;9.40;99.90;;;;;;5078293;28;20048;-66
2024/01/22 05:41:54;;;;;;;1.98;1.50;;;10.40;99.90;;;;;;5062903;28;20242;-67
2024/01/22 05:44:20;;;;;;;3.42;1.90;;;10.40;99.90;;;;;;5065650;28;20497;-67
2024/01/22 05:46:46;;;;;;;3.15;1.90;;;10.10;99.90;;;;;;5062230;28;20043;-66
2024/01/22 05:49:12;;;;;;;3.58;1.75;;;9.60;99.90;;;;;;5079393;28;20154;-66
2024/01/22 05:51:37;;;;;;;2.05;1.63;;;9.70;99.90;;;;;;5078131;28;20050;-67
2024/01/22 05:54:03;;;;;;;2.35;1.30;;;10.50;99.90;;;;;;5046896;28;20051;-67
2024/01/22 05:56:29;;;;;;;2.20;1.60;;;10.50;99.90;;;;;;5077444;28;20053;-66
2024/01/22 05:58:56;;;;;;;4.18;1.70;;;9.50;99.90;;;;;;5060021;28;20101;-66
2024/01/22 06:01:23;;;;;;;1.80;1.20;;;9.50;99.90;;;;;;5062489;28;20050;-66
2024/01/22 06:03:48;;;;;;;3.92;1.27;;;9.60;99.90;;;;;;5058729;28;20414;-66
2024/01/22 06:06:15;;;;;;;1.77;0.88;;;9.80;99.90;;;;;;5076723;28;20557;-65
2024/01/22 06:08:42;;;;;;;2.53;0.82;;;9.80;99.90;;;;;;5058265;28;20040;-66
2024/01/22 06:11:07;;;;;;;4.30;0.88;;;10.00;99.90;;;;;;5075155;28;20528;-66
2024/01/22 06:13:38;;;;;;;2.28;0.82;;;9.80;99.90;;;;;;5075036;28;20134;-66
2024/01/22 06:16:07;;;;;;;4.93;1.00;;;10.10;99.90;;;;;;5075014;28;20248;-65
2024/01/22 06:18:33;;;;;;;4.40;0.85;;;10.40;99.90;;;;;;5065952;28;20515;-66
2024/01/22 06:20:58;;;;;;;4.03;1.00;;;10.50;99.90;;;;;;5046100;28;20047;-67
2024/01/22 06:23:24;;;;;;;3.10;0.57;;;10.50;99.90;;;;;;5060782;28;20043;-67
2024/01/22 06:25:50;;;;;;;3.35;0.63;;;10.20;99.90;;;;;;5068916;28;20198;-66
2024/01/22 06:28:16;;;;;;;3.45;1.00;;;10.10;99.90;;;;;;5063498;28;20077;-67
2024/01/22 06:30:43;;;;;;;5.05;0.68;;;10.00;99.90;;;;;;5079008;28;20118;-66
2024/01/22 06:33:09;;;;;;;1.65;0.40;;;10.00;99.90;;;;;;5077682;28;20051;-68
2024/01/22 06:35:36;;;;;;;4.40;0.63;;;10.20;99.90;;;;;;5076681;28;20543;-66
2024/01/22 06:38:02;;;;;;;2.47;0.68;;;10.20;99.90;;;;;;5061836;28;20118;-67
2024/01/22 06:40:33;;;;;;;4.22;0.43;;;10.80;99.90;;;;;;5057739;28;20059;-68
2024/01/22 06:42:59;;;;;;;4.72;0.70;;;10.70;99.90;;;;;;5056380;28;20039;-68
2024/01/22 06:45:27;;;;;;;2.35;0.43;;;10.30;99.90;;;;;;5054404;28;20047;-68
2024/01/22 06:47:53;;;;;;;5.93;0.55;;;11.10;99.90;;;;;;5057442;28;20036;-68
2024/01/22 06:50:19;;;;;;;7.60;0.98;;;11.10;99.90;;;;;;5057148;28;20580;-69
2024/01/22 06:52:46;;;;;;;4.75;0.52;;;11.20;99.90;;;;;;5056656;28;20398;-69
2024/01/22 06:55:12;;;;;;;6.13;0.80;;;10.30;99.90;;;;;;5057048;28;20043;-68
2024/01/22 06:57:38;;;;;;;6.57;0.68;;;10.50;99.90;;;;;;5074344;28;20074;-69
2024/01/22 07:00:07;;;;;;;5.88;0.80;;;12.00;99.90;;;;;;5060097;28;20532;-68
2024/01/22 07:02:34;;;;;;;4.90;0.45;;;10.30;99.90;;;;;;5074572;28;20040;-67
2024/01/22 07:05:00;;;;;;;9.30;0.80;;;12.00;99.90;;;;;;5057091;28;20191;-68
2024/01/22 07:07:26;;;;;;;8.68;1.08;;;12.00;99.90;;;;;;5076564;28;20284;-68
2024/01/22 07:09:52;;;;;;;10.05;1.10;;;10.10;99.90;;;;;;5040004;28;20039;-69
2024/01/22 07:12:22;;;;;;;9.30;0.93;;;11.00;99.90;;;;;;5072837;28;20043;-68
2024/01/22 07:14:48;;;;;;;8.73;0.95;;;11.20;99.90;;;;;;5066809;28;20722;-67
2024/01/22 07:17:21;;;;;;;6.68;0.73;;;11.30;99.90;;;;;;5073441;28;20097;-68
2024/01/22 07:19:47;;;;;;;6.57;0.95;;;9.80;99.90;;;;;;5073068;28;20169;-68
2024/01/22 07:22:12;;;;;;;9.68;1.27;;;11.60;99.90;;;;;;5058623;28;20074;-68
2024/01/22 07:24:39;;;;;;;10.57;1.30;;;9.60;99.90;;;;;;5056103;28;20393;-68
2024/01/22 07:27:04;;;;;;;8.10;0.95;;;9.60;99.90;;;;;;5056228;28;20070;-68
2024/01/22 07:29:30;;;;;;;9.60;1.30;;;11.80;99.90;;;;;;5056143;28;20100;-68
2024/01/22 07:31:57;;;;;;;9.20;0.90;;;9.60;99.90;;;;;;5055463;28;20340;-68
2024/01/22 07:34:23;;;;;;;13.35;2.17;;;9.60;99.90;;;;;;5073137;28;20454;-67
2024/01/22 07:36:49;;;;;;;15.70;1.55;;;10.30;99.90;;;;;;5039562;28;22073;-67
2024/01/22 07:39:16;;;;;;;13.95;1.40;;;11.90;99.90;;;;;;5056685;28;20044;-67
2024/01/22 07:41:41;;;;;;;20.10;2.85;;;10.00;99.90;;;;;;5053192;28;20064;-67
2024/01/22 07:44:08;;;;;;;20.77;2.28;;;10.10;99.90;;;;;;5021151;28;20044;-67
2024/01/22 07:46:34;;;;;;;23.17;3.50;;;10.30;99.90;;;;;;5069651;28;20062;-67
2024/01/22 07:49:00;;;;;;;25.02;2.97;;;10.70;99.90;;;;;;5052941;28;20036;-68
2024/01/22 07:51:26;;;;;;;20.45;2.63;;;11.30;99.90;;;;;;5069740;28;20054;-68
2024/01/22 07:53:52;;;;;;;29.85;4.03;;;12.00;99.90;;;;;;5069284;28;20072;-68
2024/01/22 07:56:18;;;;;;;31.40;4.05;;;10.40;99.90;;;;;;5053148;28;20043;-68
2024/01/22 07:58:44;;;;;;;23.00;2.80;;;11.50;99.90;;;;;;5053413;28;20040;-68
2024/01/22 08:01:10;;;;;;;37.42;4.05;;;9.80;99.90;;;;;;5069786;28;20075;-68
2024/01/22 08:03:36;;;;;;;30.90;3.78;;;11.30;99.90;;;;;;5036195;28;20237;-68
2024/01/22 08:06:02;;;;;;;34.78;4.45;;;11.20;99.90;;;;;;5069478;28;20051;-69
2024/01/22 08:08:28;;;;;;;33.03;3.67;;;10.90;99.90;;;;;;5052465;28;20305;-68
2024/01/22 08:10:54;;;;;;;21.60;2.85;;;10.10;99.90;;;;;;5052736;28;20119;-68
2024/01/22 08:13:21;;;;;;;19.30;2.22;;;10.90;99.90;;;;;;5051421;28;20040;-68
2024/01/22 08:15:47;;;;;;;14.63;1.85;;;10.80;99.90;;;;;;5069483;28;20039;-68
2024/01/22 08:18:14;;;;;;;16.30;2.10;;;10.80;99.90;;;;;;5063082;28;20052;-68
2024/01/22 08:20:40;;;;;;;23.73;2.60;;;9.40;99.90;;;;;;5069158;28;20050;-69
2024/01/22 08:23:07;;;;;;;16.95;1.98;;;9.30;99.90;;;;;;5071008;28;20646;-68
2024/01/22 08:25:32;;;;;;;20.80;2.03;;;9.60;99.90;;;;;;5069192;28;20058;-68
2024/01/22 08:27:58;;;;;;;14.27;1.65;;;9.20;99.90;;;;;;5070297;28;20044;-68
2024/01/22 08:30:25;;;;;;;17.80;1.27;;;9.40;99.90;;;;;;5052107;28;20040;-68
2024/01/22 08:32:51;;;;;;;13.27;1.35;;;9.20;99.90;;;;;;5054642;28;20147;-68
2024/01/22 08:35:21;;;;;;;13.38;1.13;;;9.10;99.90;;;;;;5040175;28;20044;-68
2024/01/22 08:37:52;;;;;;;14.85;1.70;;;9.00;99.90;;;;;;5055005;28;20043;-68
2024/01/22 08:40:21;;;;;;;15.30;1.38;;;9.00;99.90;;;;;;5068752;28;20575;-68
2024/01/22 08:42:51;;;;;;;13.02;1.50;;;10.40;99.90;;;;;;5072104;28;20084;-68
2024/01/22 08:45:18;;;;;;;12.73;1.30;;;9.40;99.90;;;;;;5059277;28;20079;-68
2024/01/22 08:47:45;;;;;;;12.60;1.30;;;9.00;99.90;;;;;;5072142;28;20051;-68
2024/01/22 08:50:15;;;;;;;17.58;1.90;;;9.00;99.90;;;;;;5071684;28;20071;-68
2024/01/22 08:52:47;;;;;;;17.80;1.30;;;9.10;99.90;;;;;;5043403;28;20533;-69
2024/01/22 08:55:15;;;;;;;12.13;1.07;;;10.30;99.90;;;;;;5055266;28;20044;-69
2024/01/22 08:57:41;;;;;;;9.02;1.08;;;9.10;99.90;;;;;;5042005;28;20105;-68
2024/01/22 09:00:10;;;;;;;16.50;1.83;;;10.20;99.90;;;;;;5060017;28;20044;-68
2024/01/22 09:02:41;;;;;;;12.35;1.48;;;9.30;99.90;;;;;;5054279;28;20036;-68
2024/01/22 09:05:08;;;;;;;26.35;3.13;;;9.20;99.90;;;;;;5074392;28;20604;-68
2024/01/22 09:07:35;;;;;;;28.30;3.88;;;10.20;99.90;;;;;;5056860;28;20052;-68
2024/01/22 09:10:07;;;;;;;28.02;3.55;;;9.40;99.90;;;;;;5072220;28;20255;-68
2024/01/22 09:12:36;;;;;;;29.17;4.70;;;9.30;99.90;;;;;;5033991;28;20176;-68
2024/01/22 09:15:04;;;;;;;32.58;4.55;;;9.90;99.90;;;;;;5058771;28;20241;-68
2024/01/22 09:17:31;;;;;;;30.33;4.65;;;9.60;99.90;;;;;;5059252;28;20040;-68
2024/01/22 09:19:57;;;;;;;37.72;5.72;;;9.70;99.90;;;;;;5071583;28;20039;-68
2024/01/22 09:22:23;;;;;;;37.70;5.80;;;9.80;99.90;;;;;;5040567;28;20040;-68
2024/01/22 09:24:49;;;;;;;38.25;6.55;;;9.30;99.90;;;;;;5058308;28;20082;-68
2024/01/22 09:27:15;;;;;;;35.13;6.45;;;9.30;99.90;;;;;;5056465;28;20383;-67
2024/01/22 09:29:42;;;;;;;43.08;6.63;;;9.30;99.90;;;;;;5087744;28;20104;-68
2024/01/22 09:32:11;;;;;;;37.33;6.00;;;9.30;99.90;;;;;;5058288;28;20602;-68
2024/01/22 09:34:37;;;;;;;49.03;7.30;;;9.40;99.90;;;;;;5070223;28;20028;-67
2024/01/22 09:37:04;;;;;;;44.35;7.05;;;9.80;99.90;;;;;;5053910;28;20070;-68
2024/01/22 09:39:30;;;;;;;54.05;6.57;;;9.60;99.90;;;;;;5037606;28;20357;-68
2024/01/22 09:42:00;;;;;;;50.00;6.90;;;9.50;99.90;;;;;;5055554;28;20226;-68
2024/01/22 09:44:26;;;;;;;51.40;7.40;;;9.70;99.90;;;;;;5059554;28;20052;-68
2024/01/22 09:46:52;;;;;;;52.42;9.05;;;9.50;99.90;;;;;;5059516;28;20067;-69
2024/01/22 09:49:18;;;;;;;54.20;7.93;;;9.60;99.90;;;;;;5073404;28;20059;-69
2024/01/22 09:51:45;;;;;;;68.47;9.77;;;9.50;99.90;;;;;;5056629;28;20490;-68
2024/01/22 09:54:15;;;;;;;51.30;8.10;;;9.80;99.90;;;;;;5070665;28;20039;-69
2024/01/22 09:56:46;;;;;;;48.03;7.93;;;9.60;99.90;;;;;;5056943;28;20134;-68
2024/01/22 09:59:23;;;;;;;56.13;8.23;;;9.40;99.90;;;;;;5070303;28;20039;-68
2024/01/22 10:01:50;;;;;;;53.25;8.32;;;9.80;99.90;;;;;;5042044;28;20049;-68
2024/01/22 10:04:17;;;;;;;40.92;6.95;;;9.70;99.90;;;;;;5053020;28;20135;-68
2024/01/22 10:06:50;;;;;;;48.20;7.80;;;9.70;99.90;;;;;;5056137;28;20117;-68
2024/01/22 10:09:17;;;;;;;44.10;6.85;;;9.80;99.90;;;;;;5071008;28;20043;-67
2024/01/22 10:15:25;;;;;;;45.88;6.78;;;9.90;99.90;;;;;;5075247;28;20066;-68
2024/01/22 10:17:51;;;;;;;46.47;7.65;;;9.60;99.90;;;;;;5059731;28;20224;-68
2024/01/22 10:20:22;;;;;;;43.60;7.80;;;9.60;99.90;;;;;;5038037;28;20052;-68
2024/01/22 10:22:48;;;;;;;31.92;5.70;;;9.90;99.90;;;;;;5054931;28;20043;-68
2024/01/22 10:25:17;;;;;;;36.42;6.80;;;9.70;99.90;;;;;;5051556;28;20133;-68
2024/01/22 10:27:43;;;;;;;43.47;7.05;;;9.90;99.90;;;;;;5021502;28;20542;-68
2024/01/22 10:30:11;;;;;;;30.25;5.40;;;9.70;99.90;;;;;;5054397;28;20040;-68
2024/01/22 10:32:36;;;;;;;39.08;5.70;;;9.60;99.90;;;;;;5037062;28;20128;-68
2024/01/22 10:35:03;;;;;;;36.72;6.32;;;9.70;99.90;;;;;;5054780;28;20052;-68
2024/01/22 10:37:30;;;;;;;33.92;5.30;;;9.90;99.90;;;;;;5070460;28;20070;-68
2024/01/22 10:40:03;;;;;;;31.77;5.65;;;9.90;99.90;;;;;;5054914;28;20040;-69
2024/01/22 10:42:29;;;;;;;39.03;6.40;;;10.10;99.90;;;;;;5053649;28;20056;-68
2024/01/22 10:44:57;;;;;;;40.67;7.00;;;10.30;99.90;;;;;;5054270;28;20044;-68
2024/01/22 10:47:22;;;;;;;30.70;6.03;;;10.40;99.90;;;;;;5072406;28;20035;-68
2024/01/22 10:49:51;;;;;;;33.92;6.50;;;10.70;99.90;;;;;;5071168;28;20202;-68
2024/01/22 10:52:18;;;;;;;34.40;4.35;;;10.90;99.90;;;;;;5070793;28;20047;-68
2024/01/22 10:54:44;;;;;;;31.10;6.03;;;11.00;99.90;;;;;;5070133;28;20537;-68
2024/01/22 10:57:15;;;;;;;32.50;5.03;;;11.00;99.90;;;;;;5060028;28;20097;-69
2024/01/22 10:59:59;;;;;;;33.60;5.18;;;11.50;99.90;;;;;;5070401;28;20043;-68
2024/01/22 11:02:30;;;;;;;24.40;4.70;;;11.70;99.90;;;;;;5056530;28;20044;-68
2024/01/22 11:05:05;;;;;;;30.02;5.35;;;12.00;99.90;;;;;;5053514;28;20422;-69
2024/01/22 11:07:32;;;;;;;35.95;6.10;;;12.10;99.90;;;;;;5054697;28;20247;-68
2024/01/22 11:10:01;;;;;;;21.63;3.60;;;12.30;99.90;;;;;;5037596;28;20031;-68
2024/01/22 11:12:38;;;;;;;23.83;4.47;;;12.20;99.90;;;;;;5069092;28;20032;-69
2024/01/22 11:15:04;;;;;;;26.10;4.38;;;12.30;99.90;;;;;;5052055;28;20046;-68
2024/01/22 11:17:30;;;;;;;30.13;4.78;;;12.30;99.90;;;;;;5050779;28;20250;-69
2024/01/22 11:20:16;;;;;;;23.88;4.10;;;12.60;99.90;;;;;;5039222;28;20403;-69
2024/01/22 11:22:42;;;;;;;29.10;4.28;;;12.70;99.90;;;;;;5060289;28;20044;-69
2024/01/22 11:25:12;;;;;;;21.65;3.53;;;12.60;99.90;;;;;;5036127;28;20047;-69
2024/01/22 11:27:43;;;;;;;21.42;3.28;;;12.50;99.90;;;;;;5036861;28;20513;-69
2024/01/22 11:30:21;;;;;;;15.77;3.00;;;12.70;99.90;;;;;;5053149;28;20036;-69
2024/01/22 11:32:47;;;;;;;19.33;4.22;;;12.70;99.90;;;;;;5070064;28;20256;-69
2024/01/22 11:35:31;;;;;;;22.50;3.92;;;12.80;99.90;;;;;;5069217;28;20036;-67
2024/01/22 11:37:57;;;;;;;23.60;3.05;;;12.80;99.90;;;;;;5058238;28;20399;-69
2024/01/22 11:40:55;;;;;;;23.17;3.70;;;12.60;99.90;;;;;;5064926;28;20377;-69
2024/01/22 11:43:22;;;;;;;30.83;4.53;;;12.40;99.90;;;;;;5044217;28;20236;-69
2024/01/22 11:45:56;;;;;;;22.17;3.35;;;12.40;99.90;;;;;;5069284;28;20039;-69
2024/01/22 11:48:23;;;;;;;25.60;4.00;;;12.20;99.90;;;;;;5054378;28;20043;-69
2024/01/22 11:51:10;;;;;;;20.58;3.40;;;12.20;99.90;;;;;;5052733;28;20032;-68
2024/01/22 11:53:53;;;;;;;21.75;3.47;;;12.40;99.90;;;;;;5054976;28;20041;-69
2024/01/22 11:56:23;;;;;;;22.42;3.60;;;12.30;99.90;;;;;;5069609;28;20279;-69
2024/01/22 11:59:03;;;;;;;23.33;3.97;;;12.60;99.90;;;;;;5069617;28;20066;-69
2024/01/22 12:01:29;;;;;;;20.95;2.97;;;12.90;99.90;;;;;;5060034;28;20047;-69
2024/01/22 12:03:55;;;;;;;24.17;3.97;;;12.90;99.90;;;;;;5053895;28;20430;-69
2024/01/22 12:06:21;;;;;;;19.25;4.03;;;12.70;99.90;;;;;;5061411;28;20494;-68
2024/01/22 12:08:57;;;;;;;14.98;2.83;;;12.40;99.90;;;;;;5069368;28;20043;-68
2024/01/22 12:11:23;;;;;;;17.80;2.70;;;12.00;99.90;;;;;;5068561;28;20051;-68
2024/01/22 12:13:49;;;;;;;21.75;3.58;;;11.80;99.90;;;;;;5063036;28;20115;-68
2024/01/22 12:16:19;;;;;;;18.70;2.80;;;12.10;99.90;;;;;;5056939;28;20664;-68
2024/01/22 12:18:47;;;;;;;18.17;2.97;;;12.20;99.90;;;;;;5058926;28;20417;-68
2024/01/22 12:21:14;;;;;;;21.33;3.42;;;11.90;99.90;;;;;;5072721;28;20085;-69
2024/01/22 12:23:40;;;;;;;18.85;2.45;;;11.80;99.90;;;;;;5057211;28;20478;-69
2024/01/22 12:26:19;;;;;;;19.42;3.33;;;11.60;99.90;;;;;;5072756;28;20048;-68
2024/01/22 12:28:53;;;;;;;20.17;2.92;;;11.90;99.90;;;;;;5081353;28;20040;-69
2024/01/22 12:31:22;;;;;;;;;;;12.20;99.90;;;;;;5041810;28;20389;-69
2024/01/22 12:33:48;;;;;;;14.05;1.95;;;12.40;99.90;;;;;;5056045;28;19920;-68
2024/01/22 12:36:15;;;;;;;20.23;3.13;;;12.50;99.90;;;;;;5059565;28;20119;-69
2024/01/22 12:38:52;;;;;;;22.88;3.38;;;12.30;99.90;;;;;;5089180;28;20520;-69
2024/01/22 12:41:19;;;;;;;20.15;3.25;;;12.40;99.90;;;;;;5072007;28;20096;-69
2024/01/22 12:43:46;;;;;;;21.35;3.17;;;12.60;99.90;;;;;;5055733;28;20433;-68
2024/01/22 12:46:15;;;;;;;17.30;2.53;;;12.70;99.90;;;;;;5059057;28;20040;-68
2024/01/22 12:48:44;;;;;;;16.75;2.33;;;12.70;99.90;;;;;;5072545;28;20158;-69
2024/01/22 12:51:10;;;;;;;15.30;2.08;;;12.90;99.90;;;;;;5055901;28;20509;-69
2024/01/22 12:53:40;;;;;;;12.40;2.30;;;13.00;99.90;;;;;;5046135;28;20040;-69